Time;durP1;ratioP1;P1;durP2;ratioP2;P2;SDS_P1;SDS_P2;PMS_P1;PMS_P2;Temp;Humidity;BMP_temperature;BMP_pressure;BME280_temperature;BME280_humidity;BME280_pressure;Samples;Min_cycle;Max_cycle;Signal;HPM_P1;HPM_P2
2023/03/17 00:01:08;;;;;;;;;;;;;;;10.41;100.00;98122.44;5006548;28;19921;-40
2023/03/17 00:03:35;;;;;;;;;;;;;;;10.70;100.00;98109.97;5007361;28;20004;-40
2023/03/17 00:06:00;;;;;;;;;;;;;;;10.53;100.00;98117.63;5007747;28;19975;-40
2023/03/17 00:08:35;;;;;;;;;;;;;;;10.66;100.00;98105.88;5025499;28;20861;-40
2023/03/17 00:11:00;;;;;;;;;;;;;;;10.54;100.00;98111.59;5007579;28;19921;-39
2023/03/17 00:13:26;;;;;;;;;;;;;;;10.72;100.00;98115.03;5002924;28;20379;-40
2023/03/17 00:15:52;;;;;;;;;;;;;;;10.38;100.00;98112.28;5009081;28;20473;-40
2023/03/17 00:18:17;;;;;;;;;;;;;;;10.09;100.00;98107.59;4992323;28;19917;-40
2023/03/17 00:20:43;;;;;;;;;;;;;;;10.53;100.00;98109.91;5004699;28;19917;-40
2023/03/17 00:23:10;;;;;;;;;;;;;;;10.26;100.00;98107.66;5020082;28;20858;-40
2023/03/17 00:25:36;;;;;;;;;;;;;;;10.35;100.00;98107.25;4999581;28;19948;-40
2023/03/17 00:28:03;;;;;;;;;;;;;;;10.67;100.00;98103.22;5010179;28;20550;-40
2023/03/17 00:30:28;;;;;;;;;;;;;;;10.41;100.00;98101.84;5010277;28;19924;-40
2023/03/17 00:32:55;;;;;;;;;;;;;;;10.67;100.00;98115.25;5004098;28;19921;-40
2023/03/17 00:35:21;;;;;;;;;;;;;;;10.61;100.00;98093.22;5001699;28;19964;-40
2023/03/17 00:37:47;;;;;;;;;;;;;;;10.72;100.00;98100.44;5010306;28;19920;-40
2023/03/17 00:40:20;;;;;;;;;;;;;;;10.56;100.00;98109.75;5012055;28;19921;-40
2023/03/17 00:42:45;;;;;;;;;;;;;;;11.14;100.00;98096.69;5006041;28;19936;-40
2023/03/17 00:45:11;;;;;;;;;;;;;;;10.52;100.00;98097.94;5003258;28;19925;-40
2023/03/17 00:47:37;;;;;;;;;;;;;;;10.43;100.00;98102.59;5008135;28;19918;-40
2023/03/17 00:50:03;;;;;;;;;;;;;;;10.78;100.00;98096.72;5006913;28;19993;-40
2023/03/17 00:52:28;;;;;;;;;;;;;;;10.89;100.00;98097.88;5004560;28;19917;-40
2023/03/17 00:54:54;;;;;;;;;;;;;;;10.98;100.00;98085.47;5005172;28;19932;-40
2023/03/17 00:57:19;;;;;;;;;;;;;;;10.87;100.00;98083.41;5007340;28;19917;-40
2023/03/17 00:59:44;;;;;;;;;;;;;;;10.59;100.00;98078.75;5007453;28;20260;-40
2023/03/17 01:02:10;;;;;;;;;;;;;;;10.49;100.00;98092.94;5022196;28;19918;-40
2023/03/17 01:04:35;;;;;;;;;;;;;;;10.34;100.00;98090.16;5004022;28;19922;-40
2023/03/17 01:07:01;;;;;;;;;;;;;;;11.05;100.00;98089.41;5011083;28;20012;-40
2023/03/17 01:09:26;;;;;;;;;;;;;;;10.67;100.00;98084.34;5004331;28;20066;-40
2023/03/17 01:11:52;;;;;;;;;;;;;;;10.40;100.00;98105.34;5000520;28;19928;-40
2023/03/17 01:14:17;;;;;;;;;;;;;;;10.66;100.00;98111.00;5005303;28;19925;-40
2023/03/17 01:16:43;;;;;;;;;;;;;;;11.05;100.00;98097.97;5009099;28;19921;-40
2023/03/17 01:19:10;;;;;;;;;;;;;;;10.78;100.00;98115.56;5003382;28;19925;-40
2023/03/17 01:21:35;;;;;;;;;;;;;;;11.02;100.00;98118.75;5021759;28;20031;-40
2023/03/17 01:24:01;;;;;;;;;;;;;;;10.88;100.00;98101.38;5005659;28;20011;-40
2023/03/17 01:26:27;;;;;;;;;;;;;;;11.17;100.00;98106.84;5007256;28;20386;-40
2023/03/17 01:28:52;;;;;;;;;;;;;;;10.46;100.00;98115.31;5013687;28;19979;-40
2023/03/17 01:31:18;;;;;;;;;;;;;;;10.03;100.00;98117.25;5013267;28;20865;-40
2023/03/17 01:33:44;;;;;;;;;;;;;;;10.54;100.00;98106.44;5012061;28;19920;-40
2023/03/17 01:36:09;;;;;;;;;;;;;;;10.72;100.00;98103.00;5011430;28;19997;-40
2023/03/17 01:38:35;;;;;;;;;;;;;;;10.50;100.00;98120.34;5007967;28;19974;-40
2023/03/17 01:41:00;;;;;;;;;;;;;;;10.43;100.00;98110.34;5011644;28;20015;-40
2023/03/17 01:43:29;;;;;;;;;;;;;;;10.27;100.00;98123.03;5008165;28;19928;-40
2023/03/17 01:46:13;;;;;;;;;;;;;;;10.51;100.00;98098.84;5011663;28;20034;-40
2023/03/17 01:48:43;;;;;;;;;;;;;;;10.27;100.00;98106.75;5015752;28;20048;-40
2023/03/17 01:51:10;;;;;;;;;;;;;;;10.38;100.00;98089.13;5008560;28;19917;-40
2023/03/17 01:53:35;;;;;;;;;;;;;;;10.44;100.00;98096.53;5028046;28;19960;-40
2023/03/17 01:56:01;;;;;;;;;;;;;;;10.64;100.00;98092.22;5013753;28;19952;-40
2023/03/17 01:58:26;;;;;;;;;;;;;;;10.53;100.00;98090.13;5026841;28;19963;-40
2023/03/17 02:00:52;;;;;;;;;;;;;;;10.68;100.00;98070.59;4997630;28;20175;-40
2023/03/17 02:03:17;;;;;;;;;;;;;;;10.70;100.00;98097.09;5009796;28;19922;-40
2023/03/17 02:05:42;;;;;;;;;;;;;;;10.57;100.00;98091.66;5012825;28;19932;-40
2023/03/17 02:08:11;;;;;;;;;;;;;;;10.27;100.00;98091.31;5011225;28;19968;-40
2023/03/17 02:10:37;;;;;;;;;;;;;;;10.58;100.00;98095.06;5009002;28;20767;-40
2023/03/17 02:13:04;;;;;;;;;;;;;;;10.82;100.00;98081.06;5027394;28;19925;-40
2023/03/17 02:15:36;;;;;;;;;;;;;;;10.76;100.00;98091.63;5008920;28;20409;-40
2023/03/17 02:18:02;;;;;;;;;;;;;;;10.47;100.00;98087.88;5027377;28;19975;-40
2023/03/17 02:20:27;;;;;;;;;;;;;;;10.88;100.00;98106.53;5008725;28;19921;-40
2023/03/17 02:22:53;;;;;;;;;;;;;;;10.98;100.00;98095.78;5007054;28;20302;-40
2023/03/17 02:25:19;;;;;;;;;;;;;;;10.65;100.00;98091.31;5007439;28;19925;-40
2023/03/17 02:27:45;;;;;;;;;;;;;;;10.55;100.00;98113.25;5028807;28;20024;-40
2023/03/17 02:30:12;;;;;;;;;;;;;;;10.80;100.00;98092.34;5010611;28;19964;-40
2023/03/17 02:32:37;;;;;;;;;;;;;;;10.49;100.00;98101.50;5008416;28;19957;-40
2023/03/17 02:35:03;;;;;;;;;;;;;;;10.45;100.00;98081.97;5013449;28;19964;-40
2023/03/17 02:37:29;;;;;;;;;;;;;;;10.58;100.00;98071.91;5013910;28;20226;-40
2023/03/17 02:39:54;;;;;;;;;;;;;;;10.63;100.00;98065.66;5004372;28;20768;-40
2023/03/17 02:42:19;;;;;;;;;;;;;;;10.88;100.00;98065.31;5003358;28;20664;-40
2023/03/17 02:44:45;;;;;;;;;;;;;;;11.09;100.00;98062.59;5004743;28;19997;-40
2023/03/17 02:47:10;;;;;;;;;;;;;;;10.66;100.00;98062.09;5010603;28;20015;-40
2023/03/17 02:49:35;;;;;;;;;;;;;;;10.78;100.00;98053.78;5007475;28;20321;-40
2023/03/17 02:52:01;;;;;;;;;;;;;;;10.74;100.00;98034.25;5004741;28;19913;-40
2023/03/17 02:54:26;;;;;;;;;;;;;;;10.95;100.00;98028.94;5010747;28;20278;-40
2023/03/17 02:56:51;;;;;;;;;;;;;;;11.10;100.00;98008.41;5014052;28;19921;-40
2023/03/17 02:59:17;;;;;;;;;;;;;;;10.88;100.00;98007.81;5012392;28;19990;-40
2023/03/17 03:01:42;;;;;;;;;;;;;;;11.23;100.00;97987.19;5004323;28;20000;-40
2023/03/17 03:04:07;;;;;;;;;;;;;;;11.42;100.00;97953.53;5007465;28;20048;-40
2023/03/17 03:06:33;;;;;;;;;;;;;;;11.08;100.00;97970.75;5006517;28;20296;-40
2023/03/17 03:08:58;;;;;;;;;;;;;;;11.73;100.00;97960.50;5008416;28;20345;-40
2023/03/17 03:11:23;;;;;;;;;;;;;;;11.54;100.00;97976.13;5006059;28;19929;-40
2023/03/17 03:13:49;;;;;;;;;;;;;;;11.77;100.00;97953.41;5009510;28;19917;-40
2023/03/17 03:16:14;;;;;;;;;;;;;;;12.10;100.00;97943.88;5008591;28;19971;-40
2023/03/17 03:18:40;;;;;;;;;;;;;;;11.68;100.00;97957.34;5007554;28;19921;-40
2023/03/17 03:21:05;;;;;;;;;;;;;;;11.54;100.00;97959.81;5011013;28;19913;-40
2023/03/17 03:23:30;;;;;;;;;;;;;;;11.65;100.00;97963.47;5008750;28;19922;-40
2023/03/17 03:25:56;;;;;;;;;;;;;;;11.70;100.00;97956.34;5007153;28;19941;-40
2023/03/17 03:28:21;;;;;;;;;;;;;;;11.00;100.00;97978.03;5005773;28;20003;-40
2023/03/17 03:30:47;;;;;;;;;;;;;;;11.46;100.00;97965.38;5011414;28;19924;-40
2023/03/17 03:33:12;;;;;;;;;;;;;;;11.21;100.00;97950.34;5010490;28;19917;-40
2023/03/17 03:35:38;;;;;;;;;;;;;;;11.16;100.00;97960.88;5007904;28;19924;-40
2023/03/17 03:38:04;;;;;;;;;;;;;;;11.00;100.00;97967.72;5013650;28;19925;-40
2023/03/17 03:40:29;;;;;;;;;;;;;;;10.97;100.00;97978.16;5002619;28;20008;-40
2023/03/17 03:42:55;;;;;;;;;;;;;;;11.58;100.00;97956.16;5007952;28;19944;-40
2023/03/17 03:45:20;;;;;;;;;;;;;;;11.34;100.00;97969.41;5006505;28;20000;-40
2023/03/17 03:47:45;;;;;;;;;;;;;;;11.75;100.00;97958.69;5007190;28;19948;-40
2023/03/17 03:50:10;;;;;;;;;;;;;;;10.99;100.00;97989.22;5006803;28;19928;-40
2023/03/17 03:52:36;;;;;;;;;;;;;;;10.63;100.00;98001.28;5012113;28;19921;-40
2023/03/17 03:55:01;;;;;;;;;;;;;;;11.34;100.00;97981.47;5003926;28;19921;-40
2023/03/17 03:57:26;;;;;;;;;;;;;;;11.17;100.00;97983.16;5007886;28;20493;-41
2023/03/17 03:59:52;;;;;;;;;;;;;;;10.88;100.00;97982.06;5006544;28;19979;-40
2023/03/17 04:02:17;;;;;;;;;;;;;;;10.89;100.00;97974.25;5006808;28;20020;-40
2023/03/17 04:04:42;;;;;;;;;;;;;;;11.10;100.00;97976.66;5005053;28;19953;-40
2023/03/17 04:07:08;;;;;;;;;;;;;;;11.36;100.00;97965.03;5002669;28;19953;-40
2023/03/17 04:09:33;;;;;;;;;;;;;;;11.25;100.00;97957.00;5007307;28;19913;-40
2023/03/17 04:11:59;;;;;;;;;;;;;;;11.09;100.00;97967.25;5009858;28;19969;-40
2023/03/17 04:14:24;;;;;;;;;;;;;;;11.53;100.00;97953.81;5009172;28;20003;-40
2023/03/17 04:16:49;;;;;;;;;;;;;;;11.05;100.00;97974.31;5007859;28;20052;-40
2023/03/17 04:19:15;;;;;;;;;;;;;;;11.45;100.00;97950.81;5007310;28;19917;-40
2023/03/17 04:21:41;;;;;;;;;;;;;;;11.37;100.00;97937.50;5010056;28;20004;-40
2023/03/17 04:24:06;;;;;;;;;;;;;;;11.05;100.00;97952.88;5005692;28;20014;-40
2023/03/17 04:26:32;;;;;;;;;;;;;;;10.94;100.00;97957.72;5004698;28;19944;-40
2023/03/17 04:28:57;;;;;;;;;;;;;;;11.21;100.00;97950.34;5006795;28;20014;-40
2023/03/17 04:31:23;;;;;;;;;;;;;;;11.22;100.00;97939.97;5012901;28;19917;-40
2023/03/17 04:33:48;;;;;;;;;;;;;;;11.01;100.00;97930.75;5004143;28;19975;-40
2023/03/17 04:36:20;;;;;;;;;;;;;;;11.36;100.00;97921.19;5005744;28;20488;-40
2023/03/17 04:38:46;;;;;;;;;;;;;;;11.57;99.55;97908.09;5009968;28;19917;-40
2023/03/17 04:41:12;;;;;;;;;;;;;;;11.21;99.37;97920.25;5007671;28;20539;-40
2023/03/17 04:43:37;;;;;;;;;;;;;;;11.46;97.98;97911.22;5007668;28;19918;-40
2023/03/17 04:46:02;;;;;;;;;;;;;;;11.70;98.41;97922.00;5007072;28;19920;-40
2023/03/17 04:48:28;;;;;;;;;;;;;;;11.36;97.88;97920.34;5006884;28;19917;-40
2023/03/17 04:50:53;;;;;;;;;;;;;;;11.59;98.21;97916.56;5004031;28;20421;-40
2023/03/17 04:53:18;;;;;;;;;;;;;;;11.60;98.15;97908.75;5007999;28;20385;-40
2023/03/17 04:55:44;;;;;;;;;;;;;;;11.36;97.92;97917.75;5004150;28;20481;-40
2023/03/17 04:58:09;;;;;;;;;;;;;;;11.32;96.89;97914.53;5007142;28;19964;-40
2023/03/17 05:00:37;;;;;;;;;;;;;;;11.18;98.58;97948.75;5005973;28;19952;-40
2023/03/17 05:03:03;;;;;;;;;;;;;;;11.71;96.72;97921.88;5006826;28;19967;-40
2023/03/17 05:05:28;;;;;;;;;;;;;;;11.23;96.71;97923.56;5006995;28;19925;-40
2023/03/17 05:07:53;;;;;;;;;;;;;;;11.46;96.24;97924.13;5005692;28;19934;-40
2023/03/17 05:10:18;;;;;;;;;;;;;;;12.08;95.81;97914.75;5002222;28;19917;-40
2023/03/17 05:12:44;;;;;;;;;;;;;;;12.14;94.17;97893.75;5009733;28;19968;-40
2023/03/17 05:15:09;;;;;;;;;;;;;;;11.80;95.34;97909.44;5002773;28;19928;-40
2023/03/17 05:17:35;;;;;;;;;;;;;;;11.89;95.85;97908.94;5009300;28;19925;-40
2023/03/17 05:20:00;;;;;;;;;;;;;;;11.52;96.04;97922.06;5009010;28;19918;-40
2023/03/17 05:22:26;;;;;;;;;;;;;;;11.61;96.83;97941.38;5009257;28;19960;-40
2023/03/17 05:24:51;;;;;;;;;;;;;;;10.76;98.37;97957.72;5004719;28;20394;-40
2023/03/17 05:27:16;;;;;;;;;;;;;;;11.59;98.11;97952.69;5004414;28;19931;-40
2023/03/17 05:29:41;;;;;;;;;;;;;;;11.33;100.00;97978.06;5004302;28;20004;-40
2023/03/17 05:32:07;;;;;;;;;;;;;;;10.67;98.71;97945.31;5000722;28;19996;-40
2023/03/17 05:34:32;;;;;;;;;;;;;;;11.09;99.70;97941.50;5001524;28;19917;-40
2023/03/17 05:36:57;;;;;;;;;;;;;;;11.20;98.89;97936.63;5000641;28;20009;-40
2023/03/17 05:39:22;;;;;;;;;;;;;;;11.29;97.44;97925.84;5006933;28;19922;-40
2023/03/17 05:41:49;;;;;;;;;;;;;;;11.23;98.12;97935.63;5002266;28;19921;-40
2023/03/17 05:44:15;;;;;;;;;;;;;;;11.16;99.17;97945.41;5000199;28;19929;-40
2023/03/17 05:46:40;;;;;;;;;;;;;;;10.98;99.25;97946.38;5005512;28;19936;-40
2023/03/17 05:49:06;;;;;;;;;;;;;;;11.08;99.58;97947.53;5011401;28;19918;-40
2023/03/17 05:51:31;;;;;;;;;;;;;;;11.50;98.01;97923.06;5005911;28;19927;-40
2023/03/17 05:53:57;;;;;;;;;;;;;;;11.09;99.65;97939.75;5004370;28;20298;-40
2023/03/17 05:56:23;;;;;;;;;;;;;;;11.37;98.82;97922.84;5007835;28;19929;-40
2023/03/17 05:58:48;;;;;;;;;;;;;;;11.02;99.34;97932.41;5007226;28;19921;-40
2023/03/17 06:01:14;;;;;;;;;;;;;;;11.28;97.77;97925.91;5004790;28;21175;-41
2023/03/17 06:03:39;;;;;;;;;;;;;;;11.81;97.61;97921.38;5005004;28;20625;-41
2023/03/17 06:06:05;;;;;;;;;;;;;;;11.96;96.49;97910.28;5005879;28;20054;-41
2023/03/17 06:08:30;;;;;;;;;;;;;;;12.03;96.95;97921.09;5009780;28;19959;-40
2023/03/17 06:10:55;;;;;;;;;;;;;;;11.77;97.62;97935.38;5003884;28;19918;-40
2023/03/17 06:13:21;;;;;;;;;;;;;;;11.96;97.95;97927.50;5002261;28;19964;-40
2023/03/17 06:15:46;;;;;;;;;;;;;;;11.44;98.44;97926.78;5010242;28;19931;-40
2023/03/17 06:18:11;;;;;;;;;;;;;;;10.93;100.00;97958.66;5028276;28;19917;-40
2023/03/17 06:20:36;;;;;;;;;;;;;;;11.37;100.00;97945.22;5009947;28;19933;-40
2023/03/17 06:23:02;;;;;;;;;;;;;;;11.06;100.00;97936.47;5009125;28;19923;-40
2023/03/17 06:25:27;;;;;;;;;;;;;;;10.82;100.00;97938.56;5009115;28;19921;-40
2023/03/17 06:27:54;;;;;;;;;;;;;;;10.82;100.00;97946.28;5012006;28;19928;-40
2023/03/17 06:30:20;;;;;;;;;;;;;;;11.35;100.00;97931.59;5010287;28;19971;-40
2023/03/17 06:32:46;;;;;;;;;;;;;;;11.46;100.00;97931.84;5011891;28;19917;-40
2023/03/17 06:35:12;;;;;;;;;;;;;;;11.23;100.00;97928.72;5009492;28;20057;-40
2023/03/17 06:37:37;;;;;;;;;;;;;;;11.57;100.00;97929.53;5011015;28;20538;-40
2023/03/17 06:40:04;;;;;;;;;;;;;;;10.94;100.00;97919.09;5005303;28;19948;-40
2023/03/17 06:42:30;;;;;;;;;;;;;;;10.72;100.00;97942.50;5005780;28;19953;-40
2023/03/17 06:44:55;;;;;;;;;;;;;;;11.36;100.00;97938.38;5001228;28;20019;-40
2023/03/17 06:47:21;;;;;;;;;;;;;;;10.75;100.00;97935.47;5007467;28;19928;-40
2023/03/17 06:49:46;;;;;;;;;;;;;;;10.93;100.00;97938.88;5013821;28;19921;-40
2023/03/17 06:52:12;;;;;;;;;;;;;;;10.89;100.00;97950.22;5009601;28;20525;-40
2023/03/17 06:54:37;;;;;;;;;;;;;;;11.12;100.00;97954.22;5008138;28;19995;-40
2023/03/17 06:57:02;;;;;;;;;;;;;;;11.04;100.00;97951.22;5008458;28;19920;-40
2023/03/17 06:59:29;;;;;;;;;;;;;;;11.47;100.00;97949.81;5010243;28;19952;-40
2023/03/17 07:01:54;;;;;;;;;;;;;;;11.93;100.00;97936.25;5010858;28;19918;-40
2023/03/17 07:04:20;;;;;;;;;;;;;;;11.76;100.00;97937.13;5004605;28;20350;-40
2023/03/17 07:06:45;;;;;;;;;;;;;;;10.84;100.00;97945.31;5008001;28;19917;-40
2023/03/17 07:09:10;;;;;;;;;;;;;;;11.58;100.00;97935.53;5009239;28;19920;-40
2023/03/17 07:11:35;;;;;;;;;;;;;;;11.87;100.00;97939.13;5005658;28;20391;-40
2023/03/17 07:14:02;;;;;;;;;;;;;;;11.73;100.00;97935.53;5004750;28;20420;-40
2023/03/17 07:16:28;;;;;;;;;;;;;;;11.27;100.00;97952.59;5007612;28;20015;-40
2023/03/17 07:18:54;;;;;;;;;;;;;;;12.00;100.00;97932.41;5006762;28;19913;-40
2023/03/17 07:21:19;;;;;;;;;;;;;;;12.84;99.45;97903.56;5007295;28;19924;-40
2023/03/17 07:23:44;;;;;;;;;;;;;;;12.63;98.24;97902.22;5008259;28;20307;-40
2023/03/17 07:26:10;;;;;;;;;;;;;;;12.40;98.96;97917.28;5008603;28;20037;-40
2023/03/17 07:28:35;;;;;;;;;;;;;;;12.58;99.57;97917.16;5009111;28;19917;-40
2023/03/17 07:31:01;;;;;;;;;;;;;;;12.73;99.72;97911.94;5007199;28;19992;-40
2023/03/17 07:33:27;;;;;;;;;;;;;;;12.92;98.98;97895.34;5005179;28;19917;-40
2023/03/17 07:35:52;;;;;;;;;;;;;;;13.08;100.00;97915.94;5008401;28;19917;-40
2023/03/17 07:38:18;;;;;;;;;;;;;;;12.89;100.00;97911.03;5009704;28;19924;-40
2023/03/17 07:40:45;;;;;;;;;;;;;;;13.11;99.68;97905.41;5006537;28;19924;-40
2023/03/17 07:43:11;;;;;;;;;;;;;;;13.11;98.38;97895.06;5004618;28;20035;-40
2023/03/17 07:45:36;;;;;;;;;;;;;;;13.06;99.77;97917.78;5009307;28;20466;-41
2023/03/17 07:48:03;;;;;;;;;;;;;;;13.05;98.67;97908.38;5011531;28;20345;-41
2023/03/17 07:50:29;;;;;;;;;;;;;;;13.30;98.53;97906.00;5005862;28;19917;-40
2023/03/17 07:52:55;;;;;;;;;;;;;;;14.16;97.83;97884.25;5007436;28;19921;-40
2023/03/17 07:55:20;;;;;;;;;;;;;;;13.98;96.26;97874.19;5008915;28;19917;-40
2023/03/17 07:57:45;;;;;;;;;;;;;;;14.14;94.97;97866.25;5006070;28;20001;-40
2023/03/17 08:00:12;;;;;;;;;;;;;;;13.98;95.11;97871.59;5007330;28;19917;-40
2023/03/17 08:02:37;;;;;;;;;;;;;;;14.36;93.91;97854.50;5010138;28;19945;-40
2023/03/17 08:05:03;;;;;;;;;;;;;;;14.67;94.91;97868.06;5007583;28;20271;-40
2023/03/17 08:07:30;;;;;;;;;;;;;;;14.63;93.17;97847.50;5004936;28;19917;-40
2023/03/17 08:09:56;;;;;;;;;;;;;;;15.03;91.86;97836.22;5005915;28;19971;-40
2023/03/17 08:12:22;;;;;;;;;;;;;;;14.74;91.90;97843.38;5000361;28;19925;-40
2023/03/17 08:14:47;;;;;;;;;;;;;;;14.78;92.45;97839.63;5006447;28;19917;-40
2023/03/17 08:17:12;;;;;;;;;;;;;;;14.59;93.47;97858.19;5008929;28;20818;-40
2023/03/17 08:19:37;;;;;;;;;;;;;;;14.98;92.76;97844.28;5006270;28;19957;-40
2023/03/17 08:22:03;;;;;;;;;;;;;;;15.01;91.05;97831.13;5006320;28;19927;-40
2023/03/17 08:24:28;;;;;;;;;;;;;;;15.63;89.98;97811.25;5007632;28;19947;-40
2023/03/17 08:26:53;;;;;;;;;;;;;;;15.61;89.50;97800.16;5004490;28;19995;-40
2023/03/17 08:29:19;;;;;;;;;;;;;;;15.67;88.59;97805.72;5006106;28;19917;-40
2023/03/17 08:31:44;;;;;;;;;;;;;;;15.81;88.42;97809.97;5008067;28;19987;-40
2023/03/17 08:34:09;;;;;;;;;;;;;;;15.64;90.69;97829.28;5004151;28;19921;-40
2023/03/17 08:36:35;;;;;;;;;;;;;;;16.47;86.92;97791.28;5005395;28;19920;-40
2023/03/17 08:39:00;;;;;;;;;;;;;;;17.02;86.82;97791.44;5008468;28;19968;-40
2023/03/17 08:41:27;;;;;;;;;;;;;;;16.90;85.98;97803.59;5005577;28;20429;-40
2023/03/17 08:43:52;;;;;;;;;;;;;;;16.90;86.45;97808.81;5007172;28;20469;-40
2023/03/17 08:46:19;;;;;;;;;;;;;;;16.56;85.96;97819.16;5008309;28;20039;-40
2023/03/17 08:48:45;;;;;;;;;;;;;;;16.76;85.86;97814.22;5005527;28;19956;-40
2023/03/17 08:51:11;;;;;;;;;;;;;;;16.46;86.07;97826.81;5006890;28;20062;-40
2023/03/17 08:53:36;;;;;;;;;;;;;;;17.10;85.27;97810.69;5008327;28;20131;-40
2023/03/17 08:56:03;;;;;;;;;;;;;;;17.02;85.81;97825.25;5006434;28;19923;-40
2023/03/17 08:58:28;;;;;;;;;;;;;;;16.64;85.44;97829.78;5010460;28;20351;-40
2023/03/17 09:00:54;;;;;;;;;;;;;;;16.97;84.46;97832.56;4999351;28;19922;-40
2023/03/17 09:03:19;;;;;;;;;;;;;;;17.05;84.85;97843.22;5024217;28;19997;-40
2023/03/17 09:05:45;;;;;;;;;;;;;;;17.08;85.95;97853.38;5005128;28;19963;-40
2023/03/17 09:08:11;;;;;;;;;;;;;;;17.26;84.52;97830.31;5003399;28;20335;-40
2023/03/17 09:10:36;;;;;;;;;;;;;;;16.69;84.97;97858.91;5009238;28;19944;-40
2023/03/17 09:13:05;;;;;;;;;;;;;;;17.33;84.44;97847.97;5003409;28;20306;-40
2023/03/17 09:15:31;;;;;;;;;;;;;;;17.59;84.48;97842.47;5005475;28;20435;-41
2023/03/17 09:17:56;;;;;;;;;;;;;;;17.29;83.67;97845.72;5006324;28;19917;-40
2023/03/17 09:20:21;;;;;;;;;;;;;;;17.41;83.47;97842.13;5002030;28;19921;-41
2023/03/17 09:22:47;;;;;;;;;;;;;;;17.88;83.17;97837.56;5005383;28;19923;-40
2023/03/17 09:25:13;;;;;;;;;;;;;;;18.29;83.28;97851.63;5006088;28;19921;-40
2023/03/17 09:27:38;;;;;;;;;;;;;;;17.03;83.99;97882.34;5005068;28;19924;-40
2023/03/17 09:30:04;;;;;;;;;;;;;;;16.80;82.06;97870.28;5006629;28;19928;-40
2023/03/17 09:32:30;;;;;;;;;;;;;;;17.13;84.71;97883.31;5002850;28;20301;-40
2023/03/17 09:34:55;;;;;;;;;;;;;;;17.55;85.52;97877.50;5004192;28;19963;-40
2023/03/17 09:37:20;;;;;;;;;;;;;;;17.92;84.95;97869.41;5007500;28;19922;-40
2023/03/17 09:39:45;;;;;;;;;;;;;;;17.82;83.40;97873.69;5004580;28;19913;-40
2023/03/17 09:42:15;;;;;;;;;;;;;;;17.13;83.66;97888.53;5006605;28;19992;-40
2023/03/17 09:44:40;;;;;;;;;;;;;;;17.02;83.07;97888.50;5021028;28;19917;-40
2023/03/17 09:47:05;;;;;;;;;;;;;;;17.17;82.79;97881.28;5005475;28;19924;-40
2023/03/17 09:49:36;;;;;;;;;;;;;;;16.90;85.77;97912.81;5012941;28;19917;-40
2023/03/17 09:52:02;;;;;;;;;;;;;;;17.50;86.96;97916.09;5006631;28;19917;-40
2023/03/17 09:54:30;;;;;;;;;;;;;;;17.65;85.02;97882.78;5011193;28;19948;-40
2023/03/17 09:57:10;;;;;;;;;;;;;;;17.75;83.40;97874.16;5013773;28;19970;-40
2023/03/17 09:59:36;;;;;;;;;;;;;;;17.67;80.96;97857.47;5013077;28;19921;-40
2023/03/17 10:02:02;;;;;;;;;;;;;;;18.44;80.77;97851.31;5007721;28;19956;-40
2023/03/17 10:04:27;;;;;;;;;;;;;;;18.30;82.34;97883.72;5008432;28;20548;-40
2023/03/17 10:06:56;;;;;;;;;;;;;;;17.55;81.53;97882.69;5011777;28;19917;-41
2023/03/17 10:09:35;;;;;;;;;;;;;;;20.26;78.89;97839.97;5008299;28;19925;-40
2023/03/17 10:12:13;;;;;;;;;;;;;;;20.08;77.35;97841.63;5009041;28;20536;-40
2023/03/17 10:14:47;;;;;;;;;;;;;;;19.83;75.01;97830.75;5008105;28;20143;-41
2023/03/17 10:17:16;;;;;;;;;;;;;;;19.85;79.62;97865.41;5010630;28;19933;-40
2023/03/17 10:19:42;;;;;;;;;;;;;;;18.85;78.71;97868.75;5022508;28;20345;-40
2023/03/17 10:22:10;;;;;;;;;;;;;;;20.11;77.40;97857.84;5010151;28;19956;-40
2023/03/17 10:24:35;;;;;;;;;;;;;;;19.16;75.78;97872.19;5006065;28;19925;-40
2023/03/17 10:27:05;;;;;;;;;;;;;;;19.11;80.07;97899.63;5028245;28;20309;-39
2023/03/17 10:29:31;;;;;;;;;;;;;;;18.35;81.19;97903.22;5007150;28;20345;-40
2023/03/17 10:31:56;;;;;;;;;;;;;;;18.97;81.45;97904.22;5025320;28;19921;-40
2023/03/17 10:34:29;;;;;;;;;;;;;;;18.16;80.93;97908.28;5007246;28;19974;-40
2023/03/17 10:36:59;;;;;;;;;;;;;;;20.05;81.31;97879.34;5013066;28;19921;-40
2023/03/17 10:39:24;;;;;;;;;;;;;;;21.03;78.42;97853.91;5009464;28;19921;-40
2023/03/17 10:42:00;;;;;;;;;;;;;;;20.81;77.94;97861.13;5009605;28;19917;-41
2023/03/17 10:44:47;;;;;;;;;;;;;;;20.83;77.72;97864.41;5018338;28;19921;-40
2023/03/17 10:47:23;;;;;;;;;;;;;;;20.63;77.34;97868.03;5008176;28;19917;-40
2023/03/17 10:49:48;;;;;;;;;;;;;;;20.35;78.54;97869.69;5008795;28;19921;-40
2023/03/17 10:52:27;;;;;;;;;;;;;;;20.90;78.32;97862.06;5006763;28;20367;-40
2023/03/17 10:54:53;;;;;;;;;;;;;;;21.74;77.29;97840.19;5025732;28;19917;-40
2023/03/17 10:57:19;;;;;;;;;;;;;;;20.92;76.53;97859.31;5007625;28;19924;-40
2023/03/17 10:59:51;;;;;;;;;;;;;;;21.27;74.62;97825.41;5007969;28;20278;-40
2023/03/17 11:02:20;;;;;;;;;;;;;;;20.51;73.28;97829.91;5024898;28;19917;-40
2023/03/17 11:04:45;;;;;;;;;;;;;;;21.24;73.52;97814.41;5008837;28;20839;-40
2023/03/17 11:07:19;;;;;;;;;;;;;;;20.08;76.41;97846.88;5009635;28;19971;-40
2023/03/17 11:09:49;;;;;;;;;;;;;;;20.78;74.71;97830.00;5012268;28;19921;-40
2023/03/17 11:12:22;;;;;;;;;;;;;;;21.24;73.75;97812.59;5008828;28;20718;-40
2023/03/17 11:14:48;;;;;;;;;;;;;;;21.24;72.09;97804.75;5012669;28;20991;-40
2023/03/17 11:17:17;;;;;;;;;;;;;;;20.89;72.23;97810.66;5009477;28;19968;-41
2023/03/17 11:19:47;;;;;;;;;;;;;;;21.95;72.58;97799.78;5022300;28;20557;-40
2023/03/17 11:22:13;;;;;;;;;;;;;;;22.65;69.39;97784.91;5021936;28;20359;-40
2023/03/17 11:24:45;;;;;;;;;;;;;;;22.15;68.58;97775.03;5008400;28;20398;-40
2023/03/17 11:27:10;;;;;;;;;;;;;;;22.05;68.79;97772.47;5005645;28;19924;-40
2023/03/17 11:29:41;;;;;;;;;;;;;;;21.39;70.01;97796.38;5006599;28;19917;-40
2023/03/17 11:32:27;;;;;;;;;;;;;;;20.25;72.19;97817.41;5006043;28;20327;-40
2023/03/17 11:34:55;;;;;;;;;;;;;;;20.87;72.25;97802.16;5006871;28;20389;-39
2023/03/17 11:37:36;;;;;;;;;;;;;;;20.27;72.93;97802.41;5006167;28;19924;-40
2023/03/17 11:40:04;;;;;;;;;;;;;;;20.74;75.21;97802.47;5013657;28;20010;-40
2023/03/17 11:42:48;;;;;;;;;;;;;;;21.15;73.91;97787.28;5006225;28;19928;-40
2023/03/17 11:45:16;;;;;;;;;;;;;;;19.83;72.67;97800.22;5004472;28;20093;-40
2023/03/17 11:47:50;;;;;;;;;;;;;;;21.42;72.65;97788.28;5007580;28;19917;-40
2023/03/17 11:50:21;;;;;;;;;;;;;;;21.38;73.05;97794.75;5009362;28;19913;-40
2023/03/17 11:53:06;;;;;;;;;;;;;;;20.95;72.61;97794.41;5004926;28;19917;-40
2023/03/17 11:55:40;;;;;;;;;;;;;;;21.06;72.34;97790.78;5007606;28;19913;-40
2023/03/17 11:58:09;;;;;;;;;;;;;;;21.14;72.51;97790.88;5006634;28;19925;-40
2023/03/17 12:00:49;;;;;;;;;;;;;;;21.00;71.08;97786.13;5004740;28;19921;-40
2023/03/17 12:03:16;;;;;;;;;;;;;;;21.40;71.72;97784.97;5004608;28;19948;-40
2023/03/17 12:05:43;;;;;;;;;;;;;;;20.63;70.41;97789.56;5002814;28;19921;-40
2023/03/17 12:08:22;;;;;;;;;;;;;;;21.59;71.62;97799.75;5002958;28;20513;-40
2023/03/17 12:10:50;;;;;;;;;;;;;;;20.74;71.51;97802.47;5008408;28;20004;-40
2023/03/17 12:13:17;;;;;;;;;;;;;;;22.21;72.79;97794.56;5020686;28;19917;-40
2023/03/17 12:15:44;;;;;;;;;;;;;;;20.99;71.83;97800.19;5009669;28;19917;-40
2023/03/17 12:18:35;;;;;;;;;;;;;;;21.18;72.71;97809.75;5006250;28;19925;-40
2023/03/17 12:21:04;;;;;;;;;;;;;;;21.29;73.52;97810.38;5008015;28;20317;-41
2023/03/17 12:23:48;;;;;;;;;;;;;;;20.91;70.87;97795.66;5004128;28;19994;-40
2023/03/17 12:26:17;;;;;;;;;;;;;;;22.41;68.66;97764.56;5006931;28;20034;-40
2023/03/17 12:28:43;;;;;;;;;;;;;;;21.33;70.89;97795.19;5006665;28;19917;-40
2023/03/17 12:31:11;;;;;;;;;;;;;;;21.82;70.51;97787.03;5004746;28;20371;-40
2023/03/17 12:33:42;;;;;;;;;;;;;;;21.04;72.33;97806.63;5019760;28;19913;-40
2023/03/17 12:36:08;;;;;;;;;;;;;;;22.17;70.69;97774.84;5023473;28;19917;-40
2023/03/17 12:38:35;;;;;;;;;;;;;;;20.50;71.91;97796.84;5025974;28;19917;-40
2023/03/17 12:41:14;;;;;;;;;;;;;;;21.66;72.06;97778.03;5006214;28;20390;-40